Flood From: 19-02-2018 16:00 Until: 20-02-2018 16:00 warning for: Flood Level: Yellow info button

Although rather usual in this region, locally or potentially dangerous phenomena are expected. (such as local winds, summer thunderstorms, rising streams or high waves) Be aware and pay attention to the latest weather updates, especially if you carry out activities exposed to weather or close to a stream or shoreline. 


Meteo18 Weather Cam more information Meteo18 Weather Cam


Thunder radar more information blitzortung!


Rain radar more information rain snow radar


Visit our other weather sites:

Template documentation
and downloads

And another site



Weather Underground History page Text

Daily Summary for December 20, 2017 Units:  English    Metric   Both
« Previous Day
Next Day »
Daily Weekly Monthly Yearly Custom
  High: Low: Average:
Temperature: TemperatureC °F 2.1 °F 4.7 °F
Dew Point: DewpointC °F 1.2 °F 3.9 °F
Humidity: Humidity % 92 % 94 %
Wind Speed: WindSpeedKMH mph 0.0 mph 1.3 mph
Wind Gust: WindSpeedGustKMH mph - -
Wind:- - WNW
Pressure: PressurehPa in 1035.8 in -
Precipitation: 0.0 in    
Historical Graphs
 
 
Tabular Data for December 20, 2017
Time Temperature Dew Point Pressure Wind Wind Speed Wind Gust Humidity Rainfall Rate (Hourly)
TemperatureC °F DewpointC °F PressurehPa in Calm     Humidity % HourlyPrecipMM in
00:02 3.1 °F 1.9 °F 1038.1 in Calm   9.7 mph 92 % 0.0 in
00:07 3.1 °F 1.9 °F 1038.1 in Calm   4.8 mph 92 % 0.0 in
00:12 3.1 °F 1.9 °F 1038.1 in North 1.6 mph 4.8 mph 92 % 0.0 in
00:22 2.9 °F 1.7 °F 1038.1 in Calm   3.2 mph 92 % 0.0 in
00:32 2.9 °F 1.7 °F 1037.8 in Calm   3.2 mph 92 % 0.0 in
00:37 2.8 °F 1.6 °F 1037.8 in Calm   3.2 mph 92 % 0.0 in
00:42 2.8 °F 1.8 °F 1037.8 in Calm   1.6 mph 93 % 0.0 in
00:47 2.9 °F 1.9 °F 1037.8 in NNE 1.6 mph 1.6 mph 93 % 0.0 in
00:57 2.9 °F 1.7 °F 1037.5 in Calm   1.6 mph 92 % 0.0 in
01:02 2.8 °F 1.6 °F 1037.5 in Calm   1.6 mph 92 % 0.0 in
01:07 2.8 °F 1.6 °F 1037.5 in Calm   1.6 mph 92 % 0.0 in
01:12 2.7 °F 1.5 °F 1037.5 in NNW 1.6 mph 1.6 mph 92 % 0.0 in
01:17 2.7 °F 1.7 °F 1037.5 in Calm   4.8 mph 93 % 0.0 in
01:22 2.7 °F 1.7 °F 1037.5 in North 1.6 mph 4.8 mph 93 % 0.0 in
01:32 2.7 °F 1.7 °F 1037.1 in NW 1.6 mph 4.8 mph 93 % 0.0 in
01:42 2.6 °F 1.6 °F 1037.1 in Calm   4.8 mph 93 % 0.0 in
01:47 2.6 °F 1.6 °F 1037.1 in WNW 1.6 mph 3.2 mph 93 % 0.0 in
01:57 2.6 °F 1.6 °F 1037.1 in Calm   3.2 mph 93 % 0.0 in
02:02 2.6 °F 1.6 °F 1037.1 in NNW 1.6 mph 3.2 mph 93 % 0.0 in
02:07 2.7 °F 1.7 °F 1037.1 in Calm   4.8 mph 93 % 0.0 in
02:17 2.8 °F 1.8 °F 1037.1 in NW 3.2 mph 3.2 mph 93 % 0.0 in
02:22 2.8 °F 1.8 °F 1037.1 in Calm   3.2 mph 93 % 0.0 in
02:27 2.8 °F 1.8 °F 1037.1 in Calm   3.2 mph 93 % 0.0 in
02:32 2.8 °F 1.8 °F 1037.1 in Calm   3.2 mph 93 % 0.0 in
02:42 2.8 °F 1.8 °F 1037.1 in WNW 1.6 mph 4.8 mph 93 % 0.0 in
02:52 2.8 °F 1.8 °F 1036.8 in Calm   3.2 mph 93 % 0.0 in
02:57 2.7 °F 1.7 °F 1037.1 in WNW 1.6 mph 3.2 mph 93 % 0.0 in
03:07 2.7 °F 1.7 °F 1036.8 in Calm   1.6 mph 93 % 0.0 in
03:12 2.6 °F 1.6 °F 1036.8 in Calm   1.6 mph 93 % 0.0 in
03:22 2.6 °F 1.7 °F 1036.8 in Calm   1.6 mph 94 % 0.0 in
03:32 2.5 °F 1.6 °F 1036.8 in Calm   1.6 mph 94 % 0.0 in
03:42 2.5 °F 1.6 °F 1036.8 in Calm     94 % 0.0 in
03:47 2.3 °F 1.3 °F 1036.8 in Calm     93 % 0.0 in
03:52 2.2 °F 1.3 °F 1036.5 in Calm     94 % 0.0 in
04:02 2.1 °F 1.2 °F 1036.5 in Calm     94 % 0.0 in
04:22 2.5 °F 1.8 °F 1036.5 in Calm   1.6 mph 95 % 0.0 in
04:32 2.5 °F 1.6 °F 1036.5 in Calm   1.6 mph 94 % 0.0 in
04:37 2.5 °F 1.6 °F 1036.5 in Calm   1.6 mph 94 % 0.0 in
04:42 2.5 °F 1.6 °F 1036.5 in Calm   1.6 mph 94 % 0.0 in
04:47 2.6 °F 1.9 °F 1036.1 in Calm   1.6 mph 95 % 0.0 in
04:57 2.7 °F 2.0 °F 1036.1 in Calm   3.2 mph 95 % 0.0 in
05:02 2.7 °F 2.0 °F 1036.5 in Calm   3.2 mph 95 % 0.0 in
05:07 2.7 °F 2.0 °F 1036.5 in Calm   3.2 mph 95 % 0.0 in
05:12 2.7 °F 2.0 °F 1036.1 in Calm   3.2 mph 95 % 0.0 in
05:17 2.8 °F 2.1 °F 1036.1 in WNW 1.6 mph 1.6 mph 95 % 0.0 in
05:22 2.8 °F 2.1 °F 1036.5 in Calm   1.6 mph 95 % 0.0 in
05:32 2.9 °F 2.2 °F 1036.5 in Calm   1.6 mph 95 % 0.0 in
05:52 2.9 °F 2.0 °F 1036.1 in Calm     94 % 0.0 in
06:02 2.9 °F 2.0 °F 1036.1 in Calm     94 % 0.0 in
06:07 3.1 °F 2.2 °F 1036.5 in Calm     94 % 0.0 in
06:12 3.1 °F 2.2 °F 1036.5 in Calm     94 % 0.0 in
06:17 3.2 °F 2.3 °F 1036.5 in Calm     94 % 0.0 in
06:22 3.2 °F 2.3 °F 1036.5 in Calm     94 % 0.0 in
06:32 3.2 °F 2.3 °F 1036.5 in Calm     94 % 0.0 in
06:42 3.2 °F 2.3 °F 1036.5 in Calm     94 % 0.0 in
06:47 3.2 °F 2.3 °F 1036.5 in Calm     94 % 0.0 in
06:52 3.3 °F 2.4 °F 1036.5 in Calm     94 % 0.0 in
07:02 3.5 °F 2.6 °F 1036.5 in Calm   1.6 mph 94 % 0.0 in
07:07 3.6 °F 2.6 °F 1036.5 in Calm   3.2 mph 93 % 0.0 in
07:12 3.6 °F 2.6 °F 1036.5 in Calm   3.2 mph 93 % 0.0 in
07:17 3.7 °F 2.7 °F 1036.5 in Calm   3.2 mph 93 % 0.0 in
07:22 3.7 °F 2.7 °F 1036.5 in Calm   3.2 mph 93 % 0.0 in
07:32 3.6 °F 2.6 °F 1036.5 in NW 1.6 mph 4.8 mph 93 % 0.0 in
07:37 3.7 °F 2.7 °F 1036.5 in Calm   4.8 mph 93 % 0.0 in
07:47 3.7 °F 2.5 °F 1036.5 in Calm   4.8 mph 92 % 0.0 in
07:52 3.7 °F 2.5 °F 1036.5 in Calm   4.8 mph 92 % 0.0 in
07:57 3.7 °F 2.5 °F 1036.5 in Calm   4.8 mph 92 % 0.0 in
08:02 3.7 °F 2.5 °F 1036.5 in Calm   4.8 mph 92 % 0.0 in
08:07 3.7 °F 2.5 °F 1036.5 in Calm   1.6 mph 92 % 0.0 in
08:22 3.7 °F 2.7 °F 1036.5 in Calm     93 % 0.0 in
08:27 3.8 °F 2.8 °F 1036.5 in Calm   1.6 mph 93 % 0.0 in
08:32 3.8 °F 2.8 °F 1036.5 in Calm   1.6 mph 93 % 0.0 in
08:42 3.8 °F 2.8 °F 1036.5 in Calm   1.6 mph 93 % 0.0 in
08:47 3.8 °F 2.8 °F 1036.5 in Calm   1.6 mph 93 % 0.0 in
08:52 3.8 °F 2.8 °F 1036.5 in Calm   1.6 mph 93 % 0.0 in
09:02 3.7 °F 2.7 °F 1036.8 in Calm     93 % 0.0 in
09:07 3.6 °F 2.6 °F 1036.8 in Calm   1.6 mph 93 % 0.0 in
09:12 3.6 °F 2.6 °F 1036.8 in Calm   1.6 mph 93 % 0.0 in
09:22 3.6 °F 2.7 °F 1036.8 in Calm   1.6 mph 94 % 0.0 in
09:27 3.6 °F 2.7 °F 1036.8 in Calm   1.6 mph 94 % 0.0 in
09:32 3.6 °F 2.7 °F 1036.8 in West 1.6 mph 1.6 mph 94 % 0.0 in
09:37 3.7 °F 2.8 °F 1036.8 in Calm   1.6 mph 94 % 0.0 in
09:42 3.7 °F 2.7 °F 1036.8 in West 1.6 mph 1.6 mph 93 % 0.0 in
09:47 3.7 °F 2.8 °F 1036.8 in Calm   4.8 mph 94 % 0.0 in
09:52 3.7 °F 2.7 °F 1036.8 in Calm   4.8 mph 93 % 0.0 in
09:57 3.7 °F 2.7 °F 1036.8 in WNW 1.6 mph 4.8 mph 93 % 0.0 in
10:07 3.8 °F 2.8 °F 1037.1 in West 3.2 mph 3.2 mph 93 % 0.0 in
10:12 3.8 °F 2.8 °F 1037.1 in SW 1.6 mph 3.2 mph 93 % 0.0 in
10:17 3.8 °F 2.8 °F 1037.1 in WSW 6.4 mph 6.4 mph 93 % 0.0 in
10:22 3.9 °F 2.9 °F 1037.1 in West 3.2 mph 4.8 mph 93 % 0.0 in
10:27 3.9 °F 2.9 °F 1037.1 in West 3.2 mph 6.4 mph 93 % 0.0 in
10:37 4.1 °F 3.1 °F 1037.1 in WSW 1.6 mph 6.4 mph 93 % 0.0 in
10:42 4.1 °F 3.1 °F 1037.1 in Calm   6.4 mph 93 % 0.0 in
10:47 4.2 °F 3.2 °F 1037.1 in West 1.6 mph 6.4 mph 93 % 0.0 in
10:57 4.3 °F 3.3 °F 1037.1 in WSW 1.6 mph 6.4 mph 93 % 0.0 in
11:02 4.4 °F 3.4 °F 1037.1 in Calm   6.4 mph 93 % 0.0 in
11:12 4.7 °F 3.7 °F 1037.1 in Calm   3.2 mph 93 % 0.0 in
11:17 4.8 °F 3.8 °F 1037.1 in WNW 6.4 mph 8.0 mph 93 % 0.0 in
11:22 4.9 °F 3.9 °F 1037.1 in NW 1.6 mph 8.0 mph 93 % 0.0 in
11:27 4.9 °F 3.9 °F 1037.1 in WNW 4.8 mph 9.7 mph 93 % 0.0 in
11:32 4.9 °F 3.9 °F 1037.1 in WNW 12.9 mph 12.9 mph 93 % 0.0 in
11:37 4.9 °F 3.9 °F 1037.1 in NNW 3.2 mph 14.5 mph 93 % 0.0 in
11:42 4.9 °F 4.0 °F 1037.1 in West 8.0 mph 14.5 mph 94 % 0.0 in
11:47 5.0 °F 4.1 °F 1037.1 in West 6.4 mph 14.5 mph 94 % 0.0 in
11:52 5.0 °F 4.1 °F 1037.1 in NW 1.6 mph 14.5 mph 94 % 0.0 in
11:57 5.1 °F 4.2 °F 1036.8 in WNW 1.6 mph 11.3 mph 94 % 0.0 in
12:02 5.1 °F 4.2 °F 1036.8 in NNW 1.6 mph 11.3 mph 94 % 0.0 in
12:12 5.2 °F 4.5 °F 1036.8 in Calm   8.0 mph 95 % 0.0 in
12:17 5.2 °F 4.5 °F 1036.8 in Calm   8.0 mph 95 % 0.0 in
12:22 5.3 °F 4.6 °F 1036.8 in Calm   8.0 mph 95 % 0.0 in
12:32 5.3 °F 4.6 °F 1036.8 in Calm   8.0 mph 95 % 0.0 in
12:42 5.4 °F 4.5 °F 1036.8 in WNW 4.8 mph 6.4 mph 94 % 0.0 in
12:52 5.4 °F 4.5 °F 1036.8 in Calm   8.0 mph 94 % 0.0 in
13:02 5.5 °F 4.6 °F 1036.8 in WNW 1.6 mph 9.7 mph 94 % 0.0 in
13:07 5.5 °F 4.6 °F 1036.5 in WNW 1.6 mph 9.7 mph 94 % 0.0 in
13:12 5.5 °F 4.6 °F 1036.5 in WNW 4.8 mph 9.7 mph 94 % 0.0 in
13:17 5.5 °F 4.6 °F 1036.5 in NNW 4.8 mph 8.0 mph 94 % 0.0 in
13:22 5.5 °F 4.6 °F 1036.5 in North 1.6 mph 8.0 mph 94 % 0.0 in
13:42 5.7 °F 5.0 °F 1036.5 in NNW 1.6 mph 6.4 mph 95 % 0.0 in
13:52 5.8 °F 5.1 °F 1036.1 in NNW 1.6 mph 6.4 mph 95 % 0.0 in
14:02 5.9 °F 5.2 °F 1036.5 in NNW 3.2 mph 4.8 mph 95 % 0.0 in
14:12 5.9 °F 5.2 °F 1036.1 in NW 1.6 mph 4.8 mph 95 % 0.0 in
14:22 6.1 °F 5.4 °F 1036.1 in Calm   8.0 mph 95 % 0.0 in
14:32 6.2 °F 5.5 °F 1036.1 in Calm   4.8 mph 95 % 0.0 in
14:42 6.3 °F 5.6 °F 1035.8 in NNW 1.6 mph 6.4 mph 95 % 0.0 in
14:52 6.3 °F 5.6 °F 1035.8 in NNW 1.6 mph 6.4 mph 95 % 0.0 in
14:57 6.3 °F 5.6 °F 1036.1 in West 3.2 mph 11.3 mph 95 % 0.0 in
15:02 6.4 °F 5.7 °F 1035.8 in NW 6.4 mph 11.3 mph 95 % 0.0 in
15:12 6.4 °F 5.7 °F 1036.1 in WNW 4.8 mph 9.7 mph 95 % 0.0 in
15:17 6.4 °F 5.7 °F 1036.1 in WNW 4.8 mph 9.7 mph 95 % 0.0 in
15:22 6.5 °F 5.8 °F 1036.1 in NW 1.6 mph 9.7 mph 95 % 0.0 in
15:27 6.5 °F 5.8 °F 1036.1 in North 1.6 mph 8.0 mph 95 % 0.0 in
15:37 6.6 °F 5.9 °F 1036.1 in Calm   4.8 mph 95 % 0.0 in
15:42 6.6 °F 5.9 °F 1036.1 in Calm   4.8 mph 95 % 0.0 in
15:52 6.6 °F 5.9 °F 1036.1 in Calm   1.6 mph 95 % 0.0 in
16:02 6.7 °F 6.0 °F 1036.1 in Calm   4.8 mph 95 % 0.0 in
16:07 6.6 °F 5.9 °F 1036.1 in Calm   1.6 mph 95 % 0.0 in
16:12 6.6 °F 5.9 °F 1036.5 in Calm   1.6 mph 95 % 0.0 in
16:17 6.5 °F 5.8 °F 1036.1 in Calm   1.6 mph 95 % 0.0 in
16:22 6.4 °F 5.7 °F 1036.1 in Calm   1.6 mph 95 % 0.0 in
16:32 6.4 °F 5.7 °F 1036.5 in Calm   1.6 mph 95 % 0.0 in
16:37 6.4 °F 5.7 °F 1036.5 in Calm   1.6 mph 95 % 0.0 in
16:42 6.4 °F 5.7 °F 1036.5 in Calm   1.6 mph 95 % 0.0 in
16:47 6.4 °F 5.7 °F 1036.5 in Calm     95 % 0.0 in
16:52 6.4 °F 5.7 °F 1036.5 in North 1.6 mph   95 % 0.0 in
17:02 6.4 °F 5.7 °F 1036.5 in Calm   1.6 mph 95 % 0.0 in
17:12 6.3 °F 5.6 °F 1036.5 in Calm   1.6 mph 95 % 0.0 in
17:17 6.3 °F 5.7 °F 1036.5 in Calm   1.6 mph 96 % 0.0 in
17:22 6.3 °F 5.7 °F 1036.5 in Calm   1.6 mph 96 % 0.0 in
17:32 6.2 °F 5.6 °F 1036.5 in Calm     96 % 0.0 in
17:42 6.2 °F 5.6 °F 1036.5 in Calm     96 % 0.0 in
17:47 6.3 °F 5.7 °F 1036.8 in WNW 3.2 mph   96 % 0.0 in
17:52 6.3 °F 5.7 °F 1036.8 in NW 1.6 mph   96 % 0.0 in
18:02 6.4 °F 5.8 °F 1036.5 in WNW 1.6 mph 4.8 mph 96 % 0.0 in
18:07 6.4 °F 5.8 °F 1036.8 in NW 1.6 mph 6.4 mph 96 % 0.0 in
18:12 6.3 °F 5.7 °F 1036.8 in Calm   6.4 mph 96 % 0.0 in
18:17 6.3 °F 5.7 °F 1036.8 in WNW 1.6 mph 8.0 mph 96 % 0.0 in
18:22 6.3 °F 5.7 °F 1036.8 in Calm   8.0 mph 96 % 0.0 in
18:32 6.2 °F 5.6 °F 1037.1 in Calm   6.4 mph 96 % 0.0 in
18:37 6.2 °F 5.6 °F 1037.1 in NW 3.2 mph 6.4 mph 96 % 0.0 in
18:42 6.2 °F 5.6 °F 1037.1 in NW 1.6 mph 8.0 mph 96 % 0.0 in
18:52 6.2 °F 5.6 °F 1037.1 in North 1.6 mph 11.3 mph 96 % 0.0 in
19:02 6.2 °F 5.8 °F 1037.1 in NW 6.4 mph 11.3 mph 97 % 0.0 in
19:12 6.3 °F 5.9 °F 1037.5 in NNW 6.4 mph 14.5 mph 97 % 0.0 in
19:17 6.3 °F 5.9 °F 1037.5 in WNW 1.6 mph 14.5 mph 97 % 0.0 in
19:22 6.3 °F 5.9 °F 1037.1 in WNW 1.6 mph 14.5 mph 97 % 0.0 in
19:32 6.2 °F 5.8 °F 1037.5 in WNW 1.6 mph 14.5 mph 97 % 0.0 in
19:37 6.2 °F 5.8 °F 1037.5 in WNW 6.4 mph 11.3 mph 97 % 0.0 in
19:42 6.2 °F 5.8 °F 1037.1 in NNW 3.2 mph 11.3 mph 97 % 0.0 in
19:47 6.2 °F 5.8 °F 1037.1 in NNW 3.2 mph 9.7 mph 97 % 0.0 in
19:52 6.2 °F 5.8 °F 1037.5 in WNW 3.2 mph 9.7 mph 97 % 0.0 in
19:57 6.2 °F 5.8 °F 1037.5 in WNW 6.4 mph 8.0 mph 97 % 0.0 in
20:02 6.2 °F 5.8 °F 1037.5 in NW 1.6 mph 8.0 mph 97 % 0.0 in
20:12 6.2 °F 5.8 °F 1037.5 in NW 1.6 mph 8.0 mph 97 % 0.0 in
20:17 6.2 °F 5.8 °F 1037.5 in NW 1.6 mph 6.4 mph 97 % 0.0 in
20:22 6.1 °F 5.7 °F 1037.5 in Calm   6.4 mph 97 % 0.0 in
20:32 6.2 °F 5.8 °F 1037.5 in WNW 1.6 mph 3.2 mph 97 % 0.0 in
20:37 6.2 °F 5.8 °F 1037.5 in WNW 3.2 mph 4.8 mph 97 % 0.0 in
20:42 6.2 °F 5.8 °F 1037.5 in West 1.6 mph 4.8 mph 97 % 0.0 in
20:52 6.2 °F 5.8 °F 1037.5 in NW 3.2 mph 4.8 mph 97 % 0.0 in
20:57 6.2 °F 5.8 °F 1037.5 in NW 1.6 mph 6.4 mph 97 % 0.0 in
21:02 6.2 °F 5.8 °F 1037.5 in Calm   6.4 mph 97 % 0.0 in
21:12 6.2 °F 5.8 °F 1037.5 in Calm   6.4 mph 97 % 0.0 in
21:17 6.2 °F 5.8 °F 1037.1 in Calm   3.2 mph 97 % 0.0 in
21:22 6.2 °F 5.8 °F 1037.1 in WNW 1.6 mph 3.2 mph 97 % 0.0 in
21:27 6.2 °F 5.8 °F 1037.1 in Calm   6.4 mph 97 % 0.0 in
21:37 6.2 °F 5.8 °F 1037.1 in NW 3.2 mph 6.4 mph 97 % 0.0 in
21:42 6.3 °F 5.9 °F 1037.1 in WNW 4.8 mph 6.4 mph 97 % 0.0 in
21:52 6.2 °F 5.8 °F 1037.1 in WNW 6.4 mph 9.7 mph 97 % 0.0 in
22:02 6.2 °F 5.8 °F 1037.1 in NW 1.6 mph 8.0 mph 97 % 0.0 in
22:12 6.2 °F 5.8 °F 1037.5 in Calm   8.0 mph 97 % 0.0 in
22:22 6.2 °F 5.8 °F 1037.5 in Calm   6.4 mph 97 % 0.0 in
22:32 6.2 °F 5.8 °F 1037.5 in WNW 1.6 mph 3.2 mph 97 % 0.0 in
22:37 6.2 °F 5.8 °F 1037.5 in WNW 1.6 mph 3.2 mph 97 % 0.0 in
22:47 6.2 °F 5.8 °F 1037.5 in WNW 1.6 mph 3.2 mph 97 % 0.0 in
22:57 6.2 °F 5.8 °F 1037.8 in Calm   6.4 mph 97 % 0.0 in
23:07 6.2 °F 5.8 °F 1037.5 in WNW 1.6 mph 8.0 mph 97 % 0.0 in
23:12 6.2 °F 5.8 °F 1037.8 in WNW 1.6 mph 8.0 mph 97 % 0.0 in
23:17 6.2 °F 5.8 °F 1037.8 in Calm   8.0 mph 97 % 0.0 in
23:22 6.3 °F 5.9 °F 1037.8 in WNW 3.2 mph 8.0 mph 97 % 0.0 in
23:32 6.3 °F 5.9 °F 1037.8 in WNW 1.6 mph 6.4 mph 97 % 0.0 in
23:37 6.3 °F 5.9 °F 1037.8 in WNW 1.6 mph 8.0 mph 97 % 0.0 in
23:42 6.3 °F 5.9 °F 1037.8 in WNW 3.2 mph 8.0 mph 97 % 0.0 in
23:47 6.3 °F 5.9 °F 1038.1 in WNW 3.2 mph 8.0 mph 97 % 0.0 in
23:52 6.3 °F 5.9 °F 1038.1 in Calm   8.0 mph 97 % 0.0 in
Meteo18
Compliments of Weather Underground - 4 mb

Script developed by  Jim McMurry - jmcmurry@mwt.net Adapted for the template by  Wim van der Kuil - Leuven-Template.eu

You find our weather info also at:

European Weather Network

Weather Underground

Equipment we use:

Weather-station
Davis Vue

Weather-program
Meteobridge

Weather-server
Raspberry PI 2 B+

Provider
1 and 1

Davis Vue

Meteobridge

Raspberry PI 2 B+

1 and 1